Time;durP1;ratioP1;P1;durP2;ratioP2;P2;SDS_P1;SDS_P2;PMS_P1;PMS_P2;Temp;Humidity;BMP_temperature;BMP_pressure;BME280_temperature;BME280_humidity;BME280_pressure;Samples;Min_cycle;Max_cycle;Signal;HPM_P1;HPM_P2
2022/03/22 00:00:50;;;;;;;17.17;15.15;;;;;;;3.96;75.46;97027.75;6336778;22;20335;-64
2022/03/22 00:03:17;;;;;;;18.58;14.43;;;;;;;3.93;75.65;97029.63;6336951;22;20320;-63
2022/03/22 00:05:44;;;;;;;22.13;13.77;;;;;;;3.91;75.01;97034.06;6337109;22;20014;-63
2022/03/22 00:08:11;;;;;;;19.90;14.10;;;;;;;3.87;75.88;97042.03;6336564;22;20002;-63
2022/03/22 00:10:37;;;;;;;17.65;14.20;;;;;;;3.82;76.66;97043.13;6336849;22;20093;-63
2022/03/22 00:13:05;;;;;;;22.23;14.52;;;;;;;3.60;77.46;97033.63;6336743;22;20090;-63
2022/03/22 00:15:32;;;;;;;14.93;13.40;;;;;;;3.53;78.16;97040.84;6336627;22;20021;-63
2022/03/22 00:17:57;;;;;;;18.98;14.48;;;;;;;3.53;77.85;97042.63;6336729;22;20007;-63
2022/03/22 00:20:23;;;;;;;17.83;12.98;;;;;;;3.60;76.95;97036.25;6336724;22;20018;-63
2022/03/22 00:22:49;;;;;;;16.70;13.23;;;;;;;3.65;76.61;97043.88;6336241;22;20003;-63
2022/03/22 00:25:16;;;;;;;18.42;14.80;;;;;;;3.61;77.57;97042.31;6336514;22;19999;-63
2022/03/22 00:27:52;;;;;;;16.35;14.05;;;;;;;3.62;77.66;97041.41;6336551;22;20396;-63
2022/03/22 00:30:29;;;;;;;14.98;13.40;;;;;;;3.57;77.86;97038.97;6336588;22;20010;-63
2022/03/22 00:32:56;;;;;;;16.55;13.52;;;;;;;3.57;76.93;97038.97;6336562;22;20010;-63
2022/03/22 00:35:27;;;;;;;16.75;13.10;;;;;;;3.62;76.17;97039.63;6336464;22;20030;-63
2022/03/22 00:37:54;;;;;;;15.10;13.30;;;;;;;3.66;76.41;97035.13;6336532;22;20030;-63
2022/03/22 00:40:21;;;;;;;14.55;13.00;;;;;;;3.65;77.12;97036.06;6336663;22;20055;-63
2022/03/22 00:42:48;;;;;;;16.92;12.93;;;;;;;3.59;77.43;97037.16;6336618;22;20534;-63
2022/03/22 00:45:17;;;;;;;14.30;11.65;;;;;;;3.61;75.94;97034.50;6336474;22;20351;-63
2022/03/22 00:47:47;;;;;;;17.27;14.90;;;;;;;3.50;76.69;97037.56;6336002;22;20121;-63
2022/03/22 00:50:14;;;;;;;16.80;13.93;;;;;;;3.51;77.35;97047.06;6336047;22;20032;-63
2022/03/22 00:52:40;;;;;;;18.92;14.20;;;;;;;3.46;77.87;97049.03;6336355;22;20056;-63
2022/03/22 00:55:07;;;;;;;14.52;11.88;;;;;;;3.37;78.07;97042.44;6336463;22;20354;-63
2022/03/22 00:57:36;;;;;;;13.90;12.10;;;;;;;3.31;78.73;97038.31;6336112;22;20033;-63
2022/03/22 01:00:05;;;;;;;10.93;9.90;;;;;;;3.31;78.10;97038.31;6336293;22;20029;-63
2022/03/22 01:02:43;;;;;;;13.95;12.25;;;;;;;3.34;77.88;97042.56;6336067;22;20435;-63
2022/03/22 01:05:15;;;;;;;14.20;12.13;;;;;;;3.33;77.83;97041.72;6336188;22;20013;-63
2022/03/22 01:07:42;;;;;;;14.80;12.43;;;;;;;3.32;77.68;97033.97;6336385;22;20370;-63
2022/03/22 01:10:09;;;;;;;12.63;11.32;;;;;;;3.27;78.42;97041.97;6335661;22;20462;-63
2022/03/22 01:12:36;;;;;;;14.18;12.70;;;;;;;3.19;79.21;97038.81;6336297;22;20026;-63
2022/03/22 01:15:10;;;;;;;15.23;12.55;;;;;;;3.12;78.98;97044.28;6336450;22;20006;-63
2022/03/22 01:17:35;;;;;;;16.52;11.40;;;;;;;3.12;78.89;97039.06;6336194;22;20609;-63
2022/03/22 01:20:01;;;;;;;12.63;10.90;;;;;;;3.12;78.67;97039.06;6336320;22;20042;-63
2022/03/22 01:22:27;;;;;;;15.60;11.95;;;;;;;3.15;78.54;97033.75;6336027;22;20094;-63
2022/03/22 01:24:53;;;;;;;13.68;10.90;;;;;;;3.14;79.19;97044.22;6336358;22;20038;-62
2022/03/22 01:27:22;;;;;;;14.93;11.65;;;;;;;3.07;79.31;97046.22;6336420;22;20082;-63
2022/03/22 01:29:49;;;;;;;13.52;11.88;;;;;;;3.01;79.20;97036.91;6336300;22;20006;-63
2022/03/22 01:32:14;;;;;;;12.73;11.45;;;;;;;2.94;80.62;97038.06;6336028;22;20054;-63
2022/03/22 01:34:40;;;;;;;14.20;11.43;;;;;;;2.90;79.63;97033.06;6335937;22;19995;-63
2022/03/22 01:37:05;;;;;;;13.93;11.23;;;;;;;2.91;79.64;97035.59;6336187;22;20419;-62
2022/03/22 01:39:31;;;;;;;13.35;11.98;;;;;;;2.94;79.60;97037.22;6336074;22;20082;-63
2022/03/22 01:41:57;;;;;;;13.60;11.55;;;;;;;2.90;79.66;97038.25;6335574;22;20440;-63
2022/03/22 01:44:26;;;;;;;13.45;10.43;;;;;;;2.88;78.99;97051.34;6335898;22;20461;-63
2022/03/22 01:46:56;;;;;;;13.73;10.90;;;;;;;2.88;79.64;97025.31;6335886;22;20072;-63
2022/03/22 01:49:23;;;;;;;14.57;11.10;;;;;;;2.83;80.17;97037.66;6336112;22;20022;-63
2022/03/22 01:51:49;;;;;;;15.02;11.77;;;;;;;2.76;80.04;97039.63;6335844;22;20003;-63
2022/03/22 01:54:15;;;;;;;15.73;12.05;;;;;;;2.81;79.41;97026.47;6336093;22;20003;-63
2022/03/22 01:56:43;;;;;;;14.30;11.65;;;;;;;2.75;79.57;97037.94;6336035;22;20001;-63
2022/03/22 01:59:08;;;;;;;14.73;11.60;;;;;;;2.65;80.93;97034.03;6335875;22;20022;-63
2022/03/22 02:07:05;;;;;;;12.32;11.13;;;;;;;2.60;80.16;97033.38;6336043;22;20052;-63
2022/03/22 02:09:31;;;;;;;13.93;11.35;;;;;;;2.55;80.32;97039.59;6335946;22;20006;-63
2022/03/22 02:11:56;;;;;;;15.02;11.60;;;;;;;2.48;81.09;97032.91;6335497;22;20002;-63
2022/03/22 02:14:21;;;;;;;14.07;11.57;;;;;;;2.47;82.32;97033.81;6335846;22;20479;-63
2022/03/22 02:16:47;;;;;;;14.48;11.90;;;;;;;2.48;82.08;97024.28;6335829;22;20078;-63
2022/03/22 02:19:14;;;;;;;13.40;11.82;;;;;;;2.50;81.44;97022.47;6335699;22;20014;-63
2022/03/22 02:21:41;;;;;;;13.52;12.23;;;;;;;2.50;81.15;97019.88;6337533;22;20010;-63
2022/03/22 02:24:07;;;;;;;13.98;11.98;;;;;;;2.50;80.83;97020.69;6337253;22;20065;-63
2022/03/22 02:26:32;;;;;;;13.43;12.02;;;;;;;2.47;81.58;97020.81;6337556;22;20069;-63
2022/03/22 02:28:59;;;;;;;12.80;11.35;;;;;;;2.46;80.38;97026.94;6337657;22;20501;-63
2022/03/22 02:31:26;;;;;;;18.05;12.00;;;;;;;2.42;81.31;97017.56;6337753;22;20007;-63
2022/03/22 02:33:52;;;;;;;13.80;12.10;;;;;;;2.48;80.87;97022.53;6337695;22;20003;-63
2022/03/22 02:36:18;;;;;;;14.10;12.43;;;;;;;2.42;81.45;97018.41;6337474;22;20098;-63
2022/03/22 02:38:43;;;;;;;14.23;12.73;;;;;;;2.33;82.44;97015.34;6337759;22;20073;-62
2022/03/22 02:41:16;;;;;;;12.93;11.63;;;;;;;2.27;83.03;97014.63;6337316;22;20085;-63
2022/03/22 02:43:41;;;;;;;15.90;12.73;;;;;;;2.28;82.18;97015.50;6337575;22;20385;-63
2022/03/22 02:46:07;;;;;;;15.45;13.30;;;;;;;2.32;81.80;97016.22;6337510;22;20192;-63
2022/03/22 02:48:34;;;;;;;14.35;12.88;;;;;;;2.26;82.16;97010.34;6337489;22;20011;-63
2022/03/22 02:50:59;;;;;;;14.55;12.13;;;;;;;2.24;81.70;97012.16;6337913;22;20377;-63
2022/03/22 02:53:25;;;;;;;15.18;13.43;;;;;;;2.23;81.32;97007.03;6337864;22;20090;-63
2022/03/22 02:55:50;;;;;;;14.30;12.27;;;;;;;2.13;83.14;97015.16;6337029;22;20003;-63
2022/03/22 02:58:16;;;;;;;16.65;13.30;;;;;;;2.09;83.91;97010.13;6337378;22;20006;-63
2022/03/22 03:00:41;;;;;;;16.30;11.80;;;;;;;2.06;83.35;97007.66;6337517;22;19999;-63
2022/03/22 03:03:06;;;;;;;16.27;13.05;;;;;;;2.10;81.91;97014.41;6337242;22;20049;-63
2022/03/22 03:05:33;;;;;;;12.52;11.23;;;;;;;2.11;82.77;97010.94;6337231;22;20447;-63
2022/03/22 03:07:58;;;;;;;13.38;11.98;;;;;;;2.05;83.59;97008.53;6337326;22;20033;-63
2022/03/22 03:10:24;;;;;;;17.33;11.98;;;;;;;1.99;83.08;97014.84;6337463;22;20034;-63
2022/03/22 03:13:04;;;;;;;16.98;12.63;;;;;;;2.04;83.47;97014.66;6337131;22;20007;-63
2022/03/22 03:15:30;;;;;;;14.48;12.82;;;;;;;2.07;82.72;97018.00;6337143;22;20011;-63
2022/03/22 03:17:57;;;;;;;17.10;12.13;;;;;;;2.05;82.76;97021.53;6337346;22;20087;-63
2022/03/22 03:20:22;;;;;;;14.43;11.90;;;;;;;1.98;83.19;97024.38;6337223;22;20074;-63
2022/03/22 03:22:47;;;;;;;13.25;11.90;;;;;;;1.92;82.49;97031.53;6336973;22;20089;-63
2022/03/22 03:25:13;;;;;;;12.65;11.40;;;;;;;1.91;83.91;97030.69;6309465;22;20041;-63
2022/03/22 03:27:39;;;;;;;15.32;13.45;;;;;;;1.83;83.50;97024.91;6337025;22;20386;-63
2022/03/22 03:30:06;;;;;;;17.50;13.82;;;;;;;1.91;83.46;97027.25;6337074;22;19999;-63
2022/03/22 03:32:32;;;;;;;15.77;12.32;;;;;;;1.86;83.80;97028.25;6336269;22;20010;-63
2022/03/22 03:34:58;;;;;;;18.17;13.82;;;;;;;1.86;83.37;97022.22;6337068;22;20013;-63
2022/03/22 03:37:24;;;;;;;14.68;12.43;;;;;;;1.90;83.42;97025.56;6337159;22;20347;-63
2022/03/22 03:39:50;;;;;;;15.57;12.48;;;;;;;1.90;84.31;97026.41;6337226;22;20599;-63
2022/03/22 03:42:15;;;;;;;15.75;13.15;;;;;;;1.82;84.47;97026.69;6336916;22;20085;-63
2022/03/22 03:47:25;;;;;;;14.35;13.02;;;;;;;1.81;84.56;97031.91;6336850;22;20025;-63
2022/03/22 03:49:59;;;;;;;17.90;14.13;;;;;;;1.76;84.87;97026.88;6336770;22;20015;-63
2022/03/22 03:52:26;;;;;;;16.08;13.48;;;;;;;1.73;84.48;97037.38;6337064;22;20009;-63
2022/03/22 03:54:52;;;;;;;15.13;13.25;;;;;;;1.74;84.45;97028.69;6309335;22;20014;-63
2022/03/22 03:57:18;;;;;;;15.85;13.77;;;;;;;1.68;85.02;97021.13;6336981;22;20081;-63
2022/03/22 03:59:44;;;;;;;23.50;15.18;;;;;;;1.58;85.26;97025.78;6336846;22;19999;-63
2022/03/22 04:02:10;;;;;;;17.05;12.90;;;;;;;1.57;85.06;97037.06;6336804;22;20010;-63
2022/03/22 04:04:38;;;;;;;15.57;12.98;;;;;;;1.61;85.60;97036.06;6336865;22;20010;-63
2022/03/22 04:07:05;;;;;;;17.98;13.38;;;;;;;1.59;85.11;97039.63;6337353;22;20026;-63
2022/03/22 04:09:32;;;;;;;15.77;13.93;;;;;;;1.53;85.61;97035.50;6336918;22;20431;-63
2022/03/22 04:11:57;;;;;;;16.05;13.38;;;;;;;1.53;84.76;97038.09;6336684;22;20097;-63
2022/03/22 04:14:23;;;;;;;18.00;13.77;;;;;;;1.56;84.80;97033.66;6336886;22;20419;-63
2022/03/22 04:16:52;;;;;;;19.92;14.27;;;;;;;1.48;86.94;97035.66;6336647;22;19998;-63
2022/03/22 04:19:17;;;;;;;15.15;13.55;;;;;;;1.41;86.32;97040.19;6336746;22;20006;-63
2022/03/22 04:21:44;;;;;;;18.48;14.13;;;;;;;1.38;87.01;97044.66;6336714;22;20519;-63
2022/03/22 04:24:11;;;;;;;16.00;12.70;;;;;;;1.39;86.47;97043.75;6336520;22;20577;-63
2022/03/22 04:26:39;;;;;;;16.38;14.10;;;;;;;1.44;84.64;97041.84;6336470;22;20048;-63
2022/03/22 04:34:34;;;;;;;18.83;14.90;;;;;;;1.40;85.38;97041.09;6335987;22;20064;-63
2022/03/22 04:37:01;;;;;;;19.92;15.50;;;;;;;1.35;86.14;97036.97;6336414;22;20347;-63
2022/03/22 04:39:28;;;;;;;15.63;14.00;;;;;;;1.32;85.28;97037.91;6335964;22;19995;-63
2022/03/22 04:41:54;;;;;;;17.58;12.80;;;;;;;1.29;85.70;97040.63;6335598;22;20358;-62
2022/03/22 04:44:20;;;;;;;16.75;14.10;;;;;;;1.28;85.79;97042.34;6336573;22;19999;-63
2022/03/22 04:46:45;;;;;;;22.13;14.20;;;;;;;1.25;86.40;97046.81;6336017;22;20015;-63
2022/03/22 04:49:11;;;;;;;21.45;14.00;;;;;;;1.22;86.24;97046.94;6336187;22;20374;-63
2022/03/22 04:57:05;;;;;;;15.60;14.00;;;;;;;1.26;85.40;97045.91;6336478;22;20025;-64
2022/03/22 04:59:30;;;;;;;17.60;14.05;;;;;;;1.20;85.44;97046.97;6336363;22;20431;-64
2022/03/22 05:01:55;;;;;;;17.65;13.80;;;;;;;1.18;85.56;97055.69;6336228;22;20003;-63
2022/03/22 05:04:21;;;;;;;15.65;13.85;;;;;;;1.13;86.24;97061.88;6336705;22;20010;-62
2022/03/22 05:06:46;;;;;;;15.20;13.52;;;;;;;1.07;86.45;97048.25;6336231;22;20064;-62
2022/03/22 05:09:13;;;;;;;17.42;13.52;;;;;;;1.06;86.50;97051.75;6335558;22;20010;-63
2022/03/22 05:11:39;;;;;;;15.98;12.63;;;;;;;1.05;85.92;97056.09;6336450;22;20011;-63
2022/03/22 05:14:05;;;;;;;21.02;12.77;;;;;;;1.05;86.93;97058.69;6336220;22;20025;-64
2022/03/22 05:16:30;;;;;;;16.42;13.82;;;;;;;1.05;86.36;97053.50;6335631;22;19998;-63
2022/03/22 05:18:57;;;;;;;15.13;13.50;;;;;;;1.09;86.27;97067.19;6335310;22;20052;-63
2022/03/22 05:21:24;;;;;;;15.32;13.07;;;;;;;1.06;86.16;97070.75;6334816;22;20377;-62
2022/03/22 05:23:49;;;;;;;15.40;13.63;;;;;;;1.00;86.90;97065.78;6336234;22;20003;-62
2022/03/22 05:26:15;;;;;;;15.10;13.52;;;;;;;0.99;86.98;97077.03;6336239;22;20552;-63
2022/03/22 05:28:41;;;;;;;15.55;13.95;;;;;;;0.95;87.13;97073.69;6336200;22;20006;-63
2022/03/22 05:31:09;;;;;;;13.13;11.85;;;;;;;0.94;87.67;97072.00;6336130;22;20093;-62
2022/03/22 05:33:36;;;;;;;15.23;12.90;;;;;;;1.00;87.05;97073.56;6336162;22;20007;-62
2022/03/22 05:36:01;;;;;;;17.17;13.63;;;;;;;1.04;86.34;97080.34;6336115;22;20009;-63
2022/03/22 05:38:27;;;;;;;15.35;13.68;;;;;;;1.01;86.52;97075.25;6336232;22;20011;-63
2022/03/22 05:40:53;;;;;;;17.25;13.20;;;;;;;1.06;86.45;97075.94;6336220;22;20399;-63
2022/03/22 05:43:19;;;;;;;16.58;14.45;;;;;;;1.05;86.59;97081.19;6335924;22;20454;-62
2022/03/22 05:45:46;;;;;;;15.95;13.23;;;;;;;1.00;86.94;97087.38;6335643;22;20003;-63
2022/03/22 05:48:12;;;;;;;18.77;14.02;;;;;;;0.97;87.75;97089.19;6336529;22;20002;-63
2022/03/22 05:50:37;;;;;;;17.60;15.35;;;;;;;0.97;86.59;97089.19;6335891;22;20052;-63
2022/03/22 05:53:03;;;;;;;16.70;13.57;;;;;;;0.96;87.41;97095.28;6335499;22;20056;-62
2022/03/22 05:55:28;;;;;;;17.52;13.73;;;;;;;0.91;87.40;97098.03;6335547;22;20465;-63
2022/03/22 05:57:53;;;;;;;16.15;12.93;;;;;;;0.92;87.14;97098.88;6336318;22;20009;-63
2022/03/22 06:00:19;;;;;;;15.50;13.27;;;;;;;0.93;87.28;97095.38;6335820;22;20034;-63
2022/03/22 06:02:44;;;;;;;20.08;14.27;;;;;;;0.92;87.52;97094.56;6336137;22;20011;-63
2022/03/22 06:05:11;;;;;;;21.23;14.40;;;;;;;0.90;87.62;97100.66;6335754;22;20365;-62
2022/03/22 06:07:38;;;;;;;17.45;14.25;;;;;;;0.96;86.80;97096.16;6335854;22;19995;-63
2022/03/22 06:10:06;;;;;;;19.27;15.35;;;;;;;0.99;87.33;97105.56;6335784;22;20014;-63
2022/03/22 06:12:45;;;;;;;18.83;14.93;;;;;;;0.98;87.04;97107.31;6335641;22;19999;-63
2022/03/22 06:15:21;;;;;;;15.95;14.00;;;;;;;0.99;85.77;97106.41;6334767;22;19998;-63
2022/03/22 06:17:52;;;;;;;20.50;15.98;;;;;;;1.00;87.06;97102.94;6334552;22;19998;-63
2022/03/22 06:20:19;;;;;;;25.25;15.20;;;;;;;1.08;86.71;97102.69;6333946;22;20057;-63
2022/03/22 06:22:48;;;;;;;21.80;16.20;;;;;;;1.13;86.66;97107.75;6334009;22;20090;-63
2022/03/22 06:25:15;;;;;;;20.67;14.40;;;;;;;1.17;86.67;97108.47;6334281;22;20025;-63
2022/03/22 06:27:42;;;;;;;21.02;15.63;;;;;;;1.16;87.30;97109.38;6334260;22;19998;-63
2022/03/22 06:30:09;;;;;;;17.65;14.65;;;;;;;1.14;87.52;97112.88;6333883;22;20015;-63
2022/03/22 06:32:47;;;;;;;23.50;15.07;;;;;;;1.16;87.88;97115.41;6334140;22;20461;-63
2022/03/22 06:35:15;;;;;;;17.88;15.25;;;;;;;1.22;87.84;97119.56;6334664;22;20003;-62
2022/03/22 06:37:40;;;;;;;23.77;16.02;;;;;;;1.27;87.54;97112.47;6334310;22;20510;-62
2022/03/22 06:40:10;;;;;;;20.98;16.17;;;;;;;1.26;88.57;97118.56;6334348;22;20056;-63
2022/03/22 06:42:36;;;;;;;22.80;15.88;;;;;;;1.34;88.48;97126.94;6334350;22;20014;-63
2022/03/22 06:45:03;;;;;;;17.98;15.25;;;;;;;1.56;86.65;97116.72;6332959;22;20007;-63
2022/03/22 06:47:29;;;;;;;19.98;15.35;;;;;;;1.64;86.25;97115.59;6334318;22;20035;-63
2022/03/22 06:49:55;;;;;;;21.85;15.25;;;;;;;1.66;86.63;97127.66;6334218;22;20351;-62
2022/03/22 06:52:20;;;;;;;22.40;16.90;;;;;;;1.71;86.56;97130.06;6332683;22;20089;-62
2022/03/22 06:54:45;;;;;;;21.60;17.88;;;;;;;1.74;87.43;97136.91;6334357;22;20062;-62
2022/03/22 06:57:11;;;;;;;26.30;18.92;;;;;;;1.78;88.54;97138.50;6334319;22;20078;-62
2022/03/22 06:59:36;;;;;;;24.17;17.83;;;;;;;1.85;87.96;97142.56;6334563;22;20010;-64
2022/03/22 07:02:02;;;;;;;23.48;17.23;;;;;;;1.92;87.18;97158.81;6331623;22;20041;-62
2022/03/22 07:04:27;;;;;;;21.70;16.17;;;;;;;1.89;87.33;97148.53;6331794;22;20014;-62
2022/03/22 07:06:53;;;;;;;33.30;17.23;;;;;;;1.90;88.28;97148.50;6333241;22;20006;-62
2022/03/22 07:09:19;;;;;;;23.33;18.63;;;;;;;2.01;87.62;97155.91;6335257;22;20041;-62
2022/03/22 07:11:49;;;;;;;22.15;17.17;;;;;;;2.07;87.34;97149.63;6335540;22;20002;-63
2022/03/22 07:14:24;;;;;;;19.30;16.98;;;;;;;2.22;86.25;97148.28;6335803;22;20479;-62
2022/03/22 07:16:50;;;;;;;23.73;19.17;;;;;;;2.34;85.20;97146.97;6335759;22;20389;-62
2022/03/22 07:19:21;;;;;;;21.17;18.63;;;;;;;2.41;84.71;97157.06;6336079;22;20009;-63
2022/03/22 07:21:47;;;;;;;20.25;17.77;;;;;;;2.49;85.09;97158.56;6335555;22;20025;-64
2022/03/22 07:24:14;;;;;;;27.55;18.33;;;;;;;2.66;85.76;97155.34;6335599;22;20010;-64
2022/03/22 07:26:43;;;;;;;29.67;20.33;;;;;;;3.20;85.55;97155.03;6335624;22;20002;-63
2022/03/22 07:29:09;;;;;;;25.98;20.15;;;;;;;4.07;81.83;97152.38;6335295;22;20006;-63
2022/03/22 07:31:38;;;;;;;20.83;18.08;;;;;;;4.92;81.14;97146.91;6334908;22;20007;-62
2022/03/22 07:34:07;;;;;;;20.38;18.15;;;;;;;5.51;77.56;97147.59;6333839;22;20356;-63
2022/03/22 07:36:35;;;;;;;20.10;15.52;;;;;;;5.75;75.57;97149.94;6335017;22;20006;-63
2022/03/22 07:39:01;;;;;;;20.50;15.43;;;;;;;6.37;74.75;97143.41;6332539;22;20088;-64
2022/03/22 07:41:26;;;;;;;23.55;15.20;;;;;;;7.02;71.38;97145.19;6332391;22;20435;-63
2022/03/22 07:43:54;;;;;;;29.75;18.80;;;;;;;7.40;68.95;97154.47;6332859;22;20488;-63
2022/03/22 07:46:26;;;;;;;35.35;21.83;;;;;;;7.72;65.89;97149.16;6332420;22;20030;-63
2022/03/22 07:48:52;;;;;;;35.65;20.60;;;;;;;7.91;65.96;97148.94;6332235;22;20033;-63
2022/03/22 07:54:02;;;;;;;23.00;17.60;;;;;;;9.08;64.21;97150.72;6333268;22;20021;-63
2022/03/22 07:56:28;;;;;;;19.65;16.65;;;;;;;9.49;61.60;97150.78;6332833;22;20007;-63
2022/03/22 07:58:53;;;;;;;19.27;14.95;;;;;;;9.71;61.39;97144.97;6333005;22;20059;-63
2022/03/22 08:01:19;;;;;;;20.55;14.10;;;;;;;9.73;60.84;97146.56;6333759;22;20060;-63
2022/03/22 08:03:45;;;;;;;19.17;14.80;;;;;;;9.78;60.10;97150.66;6305313;22;20007;-63
2022/03/22 08:06:10;;;;;;;15.68;12.98;;;;;;;9.83;60.34;97149.44;6333359;22;20007;-63
2022/03/22 08:08:37;;;;;;;14.95;12.65;;;;;;;9.84;58.56;97147.66;6333801;22;20007;-63
2022/03/22 08:11:05;;;;;;;19.55;13.02;;;;;;;9.99;58.45;97153.69;6331941;22;20080;-63
2022/03/22 08:13:31;;;;;;;13.27;11.85;;;;;;;9.82;58.84;97152.16;6332364;22;20002;-63
2022/03/22 08:15:56;;;;;;;20.60;13.18;;;;;;;9.51;58.37;97160.28;6332567;22;20453;-63
2022/03/22 08:18:22;;;;;;;18.30;13.98;;;;;;;9.29;59.60;97156.41;6333030;22;20027;-64
2022/03/22 08:20:47;;;;;;;15.95;13.90;;;;;;;9.31;60.56;97149.25;6334761;22;20007;-64
2022/03/22 08:23:13;;;;;;;14.82;12.57;;;;;;;9.43;59.93;97159.91;6334090;22;20083;-63
2022/03/22 08:25:40;;;;;;;19.20;12.80;;;;;;;9.91;58.37;97158.59;6334481;22;20013;-63
2022/03/22 08:28:08;;;;;;;17.08;12.68;;;;;;;10.32;57.79;97153.19;6333714;22;19999;-63
2022/03/22 08:30:34;;;;;;;19.08;12.63;;;;;;;10.35;56.67;97156.56;6330892;22;20006;-64
2022/03/22 08:33:09;;;;;;;14.48;12.95;;;;;;;10.39;56.15;97152.78;6290306;22;20002;-63
2022/03/22 08:35:37;;;;;;;16.30;12.07;;;;;;;10.51;57.91;97154.59;6332788;22;20438;-63
2022/03/22 08:38:03;;;;;;;15.90;12.65;;;;;;;10.48;57.48;97152.16;6333172;22;20229;-64
2022/03/22 08:40:28;;;;;;;14.38;12.77;;;;;;;10.42;56.90;97142.06;6333270;22;20009;-64
2022/03/22 08:42:56;;;;;;;15.80;13.05;;;;;;;10.68;56.53;97140.25;6332712;22;20011;-63
2022/03/22 08:45:23;;;;;;;18.27;13.05;;;;;;;10.77;55.51;97138.78;6332842;22;19999;-64
2022/03/22 08:47:51;;;;;;;16.48;13.60;;;;;;;10.52;56.05;97129.97;6332843;22;20014;-64
2022/03/22 08:50:20;;;;;;;17.13;12.35;;;;;;;10.71;55.27;97136.56;6333310;22;20355;-64
2022/03/22 08:52:54;;;;;;;15.05;11.25;;;;;;;11.34;51.79;97125.13;6332749;22;20068;-63
2022/03/22 08:55:20;;;;;;;13.32;11.75;;;;;;;10.98;53.41;97128.50;6333047;22;20049;-64
2022/03/22 08:57:48;;;;;;;15.05;12.13;;;;;;;11.01;51.92;97123.00;6332857;22;20288;-64
2022/03/22 09:00:15;;;;;;;12.63;11.40;;;;;;;11.06;53.33;97137.69;6333093;22;20030;-63
2022/03/22 09:02:42;;;;;;;14.20;11.85;;;;;;;11.42;53.70;97131.53;6332746;22;20006;-63
2022/03/22 09:07:56;;;;;;;14.65;11.45;;;;;;;11.53;54.32;97127.25;6332659;22;20042;-63
2022/03/22 09:10:21;;;;;;;16.48;11.82;;;;;;;11.84;51.97;97119.72;6330524;22;20003;-63
2022/03/22 09:12:48;;;;;;;15.38;11.75;;;;;;;11.82;50.37;97108.41;6331575;22;20376;-63
2022/03/22 09:15:14;;;;;;;16.42;12.40;;;;;;;11.98;49.59;97119.50;6331170;22;20006;-63
2022/03/22 09:17:41;;;;;;;12.60;11.30;;;;;;;12.08;50.45;97114.41;6331480;22;20002;-63
2022/03/22 09:20:08;;;;;;;15.43;11.98;;;;;;;12.26;49.97;97114.78;6330698;22;20284;-63
2022/03/22 09:22:34;;;;;;;15.90;11.40;;;;;;;12.21;49.72;97116.97;6331270;22;20366;-63
2022/03/22 09:25:00;;;;;;;13.48;12.02;;;;;;;12.49;48.61;97117.50;6332704;22;20003;-63
2022/03/22 09:27:25;;;;;;;14.15;10.60;;;;;;;12.24;48.93;97108.78;6331104;22;20332;-63
2022/03/22 09:29:51;;;;;;;15.32;11.55;;;;;;;12.13;49.42;97106.16;6302620;22;20007;-63
2022/03/22 09:32:16;;;;;;;14.98;11.80;;;;;;;12.28;48.49;97098.84;6330879;22;20067;-63
2022/03/22 09:34:43;;;;;;;15.63;12.45;;;;;;;12.61;47.97;97099.84;6331922;22;20090;-63
2022/03/22 09:37:09;;;;;;;15.13;11.20;;;;;;;12.86;47.21;97101.38;6332655;22;20007;-63
2022/03/22 09:39:34;;;;;;;13.30;9.98;;;;;;;12.98;45.84;97090.81;6332918;22;20033;-63
2022/03/22 09:42:02;;;;;;;13.05;10.63;;;;;;;12.50;47.05;97087.47;6332077;22;20015;-63
2022/03/22 09:44:29;;;;;;;15.05;11.02;;;;;;;12.37;47.42;97090.19;6304954;22;20038;-63
2022/03/22 09:46:55;;;;;;;17.05;10.40;;;;;;;12.60;46.64;97093.72;6333182;22;20049;-63
2022/03/22 09:49:20;;;;;;;14.32;11.05;;;;;;;12.85;46.71;97085.66;6332167;22;20429;-64
2022/03/22 09:51:45;;;;;;;14.05;11.60;;;;;;;12.75;46.40;97082.91;6331753;22;20025;-63
2022/03/22 09:54:20;;;;;;;13.73;12.13;;;;;;;13.12;44.74;97085.22;6330267;22;19999;-63
2022/03/22 09:56:46;;;;;;;17.08;12.13;;;;;;;12.54;47.20;97081.00;6331343;22;19995;-63
2022/03/22 09:59:12;;;;;;;13.50;11.18;;;;;;;13.03;44.75;97080.69;6330525;22;20041;-63
2022/03/22 10:01:38;;;;;;;17.08;12.07;;;;;;;12.66;45.48;97083.63;6330680;22;20355;-63
2022/03/22 10:04:07;;;;;;;16.25;11.98;;;;;;;13.05;44.54;97070.84;6330119;22;20228;-63
2022/03/22 10:06:33;;;;;;;14.38;12.63;;;;;;;12.98;44.85;97074.94;6330626;22;20002;-63
2022/03/22 10:09:00;;;;;;;18.35;13.32;;;;;;;13.24;44.45;97072.00;6331412;22;20017;-63
2022/03/22 10:11:40;;;;;;;14.05;11.25;;;;;;;13.66;43.00;97068.59;6305151;22;20011;-62
2022/03/22 10:14:10;;;;;;;14.57;10.98;;;;;;;13.75;42.30;97073.16;6333508;22;20052;-64
2022/03/22 10:16:50;;;;;;;15.60;9.98;;;;;;;13.90;41.58;97068.38;6333774;22;20004;-64
2022/03/22 10:19:24;;;;;;;12.75;10.50;;;;;;;14.04;42.52;97059.25;6333903;22;20006;-64
2022/03/22 10:21:52;;;;;;;14.95;10.60;;;;;;;14.42;40.77;97055.16;6333542;22;20011;-62
2022/03/22 10:24:18;;;;;;;12.23;10.27;;;;;;;14.30;38.19;97050.91;6333425;22;20009;-63
2022/03/22 10:26:47;;;;;;;12.13;10.27;;;;;;;14.45;38.27;97054.03;6333695;22;19998;-63
2022/03/22 10:29:14;;;;;;;12.95;10.57;;;;;;;14.54;38.56;97050.59;6329913;22;20068;-63
2022/03/22 10:31:41;;;;;;;12.77;10.50;;;;;;;14.51;36.59;97050.88;6331027;22;20507;-60
2022/03/22 10:34:09;;;;;;;17.67;11.52;;;;;;;14.86;35.11;97036.34;6331480;22;20011;-60
2022/03/22 10:36:36;;;;;;;14.10;10.20;;;;;;;14.82;34.06;97039.44;6330303;22;20018;-60
2022/03/22 10:39:07;;;;;;;12.50;9.68;;;;;;;14.84;33.81;97033.00;6333076;22;20045;-60
2022/03/22 10:41:38;;;;;;;15.30;10.77;;;;;;;14.90;34.28;97028.97;6334064;22;20007;-60
2022/03/22 10:44:09;;;;;;;10.57;9.27;;;;;;;14.70;34.81;97030.69;6334465;22;20281;-61
2022/03/22 10:46:36;;;;;;;13.27;9.50;;;;;;;15.07;32.20;97027.47;6333007;22;20085;-61
2022/03/22 10:49:27;;;;;;;12.98;9.25;;;;;;;15.41;32.55;97010.31;6333232;22;20065;-61
2022/03/22 10:51:53;;;;;;;13.73;9.15;;;;;;;15.72;30.68;97013.63;6328078;22;20144;-61
2022/03/22 10:54:20;;;;;;;11.65;9.27;;;;;;;15.66;30.96;97021.31;6335261;22;20400;-61
2022/03/22 10:56:50;;;;;;;9.05;8.00;;;;;;;16.19;27.94;97006.69;6335213;22;20037;-61
2022/03/22 10:59:17;;;;;;;9.60;8.27;;;;;;;15.59;29.72;97011.28;6335167;22;20029;-60
2022/03/22 11:01:45;;;;;;;8.85;7.95;;;;;;;15.95;27.61;97009.88;6335192;22;20002;-61
2022/03/22 11:04:15;;;;;;;10.13;7.75;;;;;;;16.09;28.27;97005.91;6307534;22;20454;-61
2022/03/22 11:06:41;;;;;;;10.57;6.93;;;;;;;15.62;23.88;97007.50;6334680;22;20025;-60
2022/03/22 11:09:06;;;;;;;12.20;7.40;;;;;;;15.83;25.61;97006.50;6335145;22;19999;-59
2022/03/22 11:11:32;;;;;;;8.02;6.50;;;;;;;15.32;24.84;97004.00;6335367;22;20021;-59
2022/03/22 11:13:59;;;;;;;10.38;6.85;;;;;;;15.69;23.58;97005.09;6334830;22;20038;-59
2022/03/22 11:16:30;;;;;;;6.22;5.72;;;;;;;15.85;23.37;97001.88;6335443;22;20007;-59
2022/03/22 11:18:56;;;;;;;7.50;6.70;;;;;;;16.40;23.94;97000.34;6334988;22;20442;-59
2022/03/22 11:21:22;;;;;;;9.93;6.05;;;;;;;16.80;22.61;97003.63;6332791;22;20009;-59
2022/03/22 11:23:48;;;;;;;10.00;7.00;;;;;;;16.06;22.32;97000.88;6333623;22;20066;-59
2022/03/22 11:26:22;;;;;;;8.85;6.35;;;;;;;15.94;21.31;96995.72;6334930;22;20002;-59
2022/03/22 11:28:49;;;;;;;8.50;6.97;;;;;;;16.02;22.58;96990.53;6334791;22;20013;-59
2022/03/22 11:31:17;;;;;;;9.95;7.00;;;;;;;15.96;23.29;96991.13;6335376;22;20094;-58
2022/03/22 11:36:40;;;;;;;11.77;6.88;;;;;;;16.39;20.36;96983.56;6335390;22;20109;-60
2022/03/22 11:39:06;;;;;;;11.18;7.03;;;;;;;16.19;22.13;96985.44;6335267;22;20010;-58
2022/03/22 11:44:37;;;;;;;10.75;8.30;;;;;;;16.67;22.72;96977.38;6335422;22;20072;-57
2022/03/22 11:47:17;;;;;;;22.25;18.20;;;;;;;16.81;22.32;96974.22;6335228;22;20019;-54
2022/03/22 11:50:00;;;;;;;11.20;9.07;;;;;;;16.16;22.61;96964.50;6334782;22;20064;-55
2022/03/22 11:52:35;;;;;;;24.02;18.33;;;;;;;16.24;24.61;96959.28;6334979;22;20009;-53
2022/03/22 11:55:06;;;;;;;7.68;6.68;;;;;;;15.93;20.85;96956.06;6335416;22;20003;-54